createdAt,value
2023-01-11T00:00:44.439Z,3.96
2023-01-11T00:01:34.436Z,3.98
2023-01-11T00:02:24.456Z,3.99
2023-01-11T00:03:14.410Z,4.00
2023-01-11T00:04:04.409Z,3.99
2023-01-11T00:04:54.479Z,3.98
2023-01-11T00:05:44.379Z,3.98
2023-01-11T00:06:34.419Z,3.98
2023-01-11T00:07:24.479Z,4.00
2023-01-11T00:08:14.367Z,4.00
2023-01-11T00:09:04.355Z,4.00
2023-01-11T00:09:54.347Z,4.00
2023-01-11T00:10:44.337Z,4.02
2023-01-11T00:11:34.325Z,4.02
2023-01-11T00:12:24.326Z,4.06
2023-01-11T00:13:14.309Z,4.04
2023-01-11T00:14:04.303Z,4.04
2023-01-11T00:14:54.306Z,4.02
2023-01-11T00:15:44.277Z,3.98
2023-01-11T00:16:34.281Z,3.95
2023-01-11T00:17:24.254Z,3.95
2023-01-11T00:18:14.256Z,3.95
2023-01-11T00:19:04.243Z,3.98
2023-01-11T00:19:54.247Z,3.96
2023-01-11T00:20:44.216Z,3.98
2023-01-11T00:21:34.204Z,3.92
2023-01-11T00:22:24.194Z,3.90
2023-01-11T00:23:14.183Z,3.90
2023-01-11T00:24:04.201Z,3.90
2023-01-11T00:24:54.170Z,3.89
2023-01-11T00:25:44.164Z,3.88
2023-01-11T00:26:34.156Z,3.89
2023-01-11T00:27:24.141Z,3.86
2023-01-11T00:28:14.135Z,3.84
2023-01-11T00:29:04.132Z,3.84
2023-01-11T00:29:54.121Z,3.84
2023-01-11T00:30:44.112Z,3.84
2023-01-11T00:31:34.126Z,3.80
2023-01-11T00:32:24.090Z,3.80
2023-01-11T00:33:14.096Z,3.80
2023-01-11T00:34:04.081Z,3.80
2023-01-11T00:34:54.075Z,3.80
2023-01-11T00:35:44.053Z,3.78
2023-01-11T00:36:34.045Z,3.80
2023-01-11T00:37:24.030Z,3.77
2023-01-11T00:38:14.031Z,3.80
2023-01-11T00:39:04.022Z,3.80
2023-01-11T00:39:54.001Z,3.81
2023-01-11T00:40:43.989Z,3.81
2023-01-11T00:41:33.993Z,3.82
2023-01-11T00:42:23.979Z,3.84
2023-01-11T00:43:13.968Z,3.84
2023-01-11T00:44:03.969Z,3.86
2023-01-11T00:44:53.948Z,3.86
2023-01-11T00:45:43.944Z,3.84
2023-01-11T00:46:33.958Z,3.82
2023-01-11T00:47:23.918Z,3.82
2023-01-11T00:48:13.905Z,3.84
2023-01-11T00:49:03.915Z,3.86
2023-01-11T00:49:53.896Z,3.86
2023-01-11T00:50:43.881Z,3.88
2023-01-11T00:51:33.889Z,3.86
2023-01-11T00:52:23.867Z,3.86
2023-01-11T00:53:13.858Z,3.88
2023-01-11T00:54:03.856Z,3.88
2023-01-11T00:54:53.841Z,3.88
2023-01-11T00:55:43.826Z,3.89
2023-01-11T00:56:33.816Z,3.90
2023-01-11T00:57:23.806Z,3.90
2023-01-11T00:58:13.844Z,3.89
2023-01-11T00:59:03.806Z,3.92
2023-01-11T00:59:53.781Z,3.93
2023-01-11T01:00:43.780Z,3.92
2023-01-11T01:01:33.820Z,3.92
2023-01-11T01:02:23.776Z,3.89
2023-01-11T01:03:13.749Z,3.86
2023-01-11T01:04:03.760Z,3.81
2023-01-11T01:04:53.730Z,3.80
2023-01-11T01:05:43.719Z,3.78
2023-01-11T01:06:33.742Z,3.78
2023-01-11T01:07:23.705Z,3.80
2023-01-11T01:08:13.693Z,3.80
2023-01-11T01:09:03.696Z,3.80
2023-01-11T01:09:53.669Z,3.81
2023-01-11T01:10:43.691Z,3.80
2023-01-11T01:11:33.656Z,3.81
2023-01-11T01:12:23.643Z,3.80
2023-01-11T01:13:13.633Z,3.81
2023-01-11T01:14:03.642Z,3.81
2023-01-11T01:14:53.636Z,3.84
2023-01-11T01:15:43.706Z,3.89
2023-01-11T01:16:41.457Z,3.89
2023-01-11T01:17:23.573Z,3.90
2023-01-11T01:18:13.568Z,3.93
2023-01-11T01:19:03.566Z,3.93
2023-01-11T01:19:53.558Z,3.95
2023-01-11T01:20:43.554Z,3.95
2023-01-11T01:21:33.536Z,3.98
2023-01-11T01:22:23.567Z,3.98
2023-01-11T01:23:13.523Z,3.99
2023-01-11T01:24:03.546Z,4.02
2023-01-11T01:24:53.506Z,3.99
2023-01-11T01:25:43.506Z,4.04
2023-01-11T01:26:33.487Z,4.06
2023-01-11T01:27:23.469Z,4.06
2023-01-11T01:28:13.465Z,4.07
2023-01-11T01:29:03.487Z,4.08
2023-01-11T01:29:53.455Z,4.08
2023-01-11T01:30:43.434Z,4.08
2023-01-11T01:31:33.490Z,4.08
2023-01-11T01:32:23.414Z,4.10
2023-01-11T01:33:13.417Z,4.08
2023-01-11T01:34:03.416Z,4.10
2023-01-11T01:34:53.396Z,4.10
2023-01-11T01:35:43.378Z,4.11
2023-01-11T01:36:33.376Z,4.11
2023-01-11T01:37:23.374Z,4.13
2023-01-11T01:38:13.380Z,4.13
2023-01-11T01:39:03.374Z,4.11
2023-01-11T01:39:53.334Z,4.11
2023-01-11T01:40:43.331Z,4.11
2023-01-11T01:41:33.317Z,4.14
2023-01-11T01:42:23.304Z,4.14
2023-01-11T01:43:13.333Z,4.16
2023-01-11T01:44:03.301Z,4.17
2023-01-11T01:44:53.282Z,4.17
2023-01-11T01:45:43.261Z,4.17
2023-01-11T01:46:33.348Z,4.18
2023-01-11T01:47:23.259Z,4.18
2023-01-11T01:48:13.250Z,4.20
2023-01-11T01:49:03.244Z,4.18
2023-01-11T01:49:53.220Z,4.20
2023-01-11T01:50:43.214Z,4.18
2023-01-11T01:51:33.208Z,4.16
2023-01-11T01:52:23.200Z,4.16
2023-01-11T01:53:13.189Z,4.16
2023-01-11T01:54:03.191Z,4.17
2023-01-11T01:54:53.172Z,4.17
2023-01-11T01:55:43.175Z,4.17
2023-01-11T01:56:33.149Z,4.18
2023-01-11T01:57:23.154Z,4.14
2023-01-11T01:58:13.128Z,4.13
2023-01-11T01:59:03.138Z,4.14
2023-01-11T01:59:53.138Z,4.14
2023-01-11T02:00:43.109Z,4.14
2023-01-11T02:01:33.193Z,4.14
2023-01-11T02:02:23.154Z,4.14
2023-01-11T02:03:13.087Z,4.13
2023-01-11T02:04:03.100Z,4.13
2023-01-11T02:04:53.067Z,4.14
2023-01-11T02:05:43.051Z,4.14
2023-01-11T02:06:33.060Z,4.16
2023-01-11T02:07:23.028Z,4.14
2023-01-11T02:08:13.016Z,4.17
2023-01-11T02:09:03.023Z,4.18
2023-01-11T02:09:53.008Z,4.21
2023-01-11T02:10:42.999Z,4.21
2023-01-11T02:11:33.013Z,4.24
2023-01-11T02:12:22.966Z,4.25
2023-01-11T02:13:12.964Z,4.25
2023-01-11T02:14:02.969Z,4.25
2023-01-11T02:14:52.955Z,4.28
2023-01-11T02:15:43.036Z,4.28
2023-01-11T02:16:32.937Z,4.31
2023-01-11T02:17:22.915Z,4.31
2023-01-11T02:18:12.913Z,4.32
2023-01-11T02:19:02.946Z,4.32
2023-01-11T02:19:52.898Z,4.32
2023-01-11T02:20:42.873Z,4.34
2023-01-11T02:21:32.887Z,4.34
2023-01-11T02:22:22.853Z,4.34
2023-01-11T02:23:12.856Z,4.36
2023-01-11T02:24:02.853Z,4.38
2023-01-11T02:24:52.842Z,4.38
2023-01-11T02:25:42.823Z,4.39
2023-01-11T02:26:32.813Z,4.43
2023-01-11T02:27:22.804Z,4.42
2023-01-11T02:28:12.799Z,4.43
2023-01-11T02:29:02.806Z,4.43
2023-01-11T02:29:52.775Z,4.44
2023-01-11T02:30:42.763Z,4.44
2023-01-11T02:31:32.826Z,4.44
2023-01-11T02:32:22.767Z,4.47
2023-01-11T02:33:12.762Z,4.46
2023-01-11T02:34:02.748Z,4.44
2023-01-11T02:34:52.722Z,4.46
2023-01-11T02:35:42.712Z,4.47
2023-01-11T02:36:32.700Z,4.49
2023-01-11T02:37:22.707Z,4.49
2023-01-11T02:38:12.682Z,4.51
2023-01-11T02:39:02.682Z,4.49
2023-01-11T02:39:52.700Z,4.49
2023-01-11T02:40:42.653Z,4.51
2023-01-11T02:41:32.660Z,4.51
2023-01-11T02:42:22.638Z,4.51
2023-01-11T02:43:12.643Z,4.54
2023-01-11T02:44:02.643Z,4.56
2023-01-11T02:44:52.614Z,4.57
2023-01-11T02:45:42.606Z,4.54
2023-01-11T02:46:32.628Z,4.54
2023-01-11T02:47:22.578Z,4.56
2023-01-11T02:48:12.571Z,4.56
2023-01-11T02:49:02.572Z,4.57
2023-01-11T02:49:52.561Z,4.59
2023-01-11T02:50:42.543Z,4.59
2023-01-11T02:51:32.532Z,4.61
2023-01-11T02:52:22.526Z,4.61
2023-01-11T02:53:12.510Z,4.62
2023-01-11T02:54:02.519Z,4.64
2023-01-11T02:54:52.499Z,4.67
2023-01-11T02:55:42.495Z,4.67
2023-01-11T02:56:32.481Z,4.69
2023-01-11T02:57:22.479Z,4.69
2023-01-11T02:58:12.459Z,4.71
2023-01-11T02:59:02.500Z,4.74
2023-01-11T02:59:52.437Z,4.75
2023-01-11T03:00:42.439Z,4.77
2023-01-11T03:01:32.450Z,4.80
2023-01-11T03:02:22.416Z,4.86
2023-01-11T03:03:12.451Z,4.87
2023-01-11T03:04:02.424Z,4.88
2023-01-11T03:04:52.385Z,4.91
2023-01-11T03:05:42.381Z,4.94
2023-01-11T03:06:32.429Z,4.94
2023-01-11T03:07:22.356Z,4.99
2023-01-11T03:08:12.348Z,5.02
2023-01-11T03:09:02.383Z,5.04
2023-01-11T03:09:52.324Z,5.06
2023-01-11T03:10:42.325Z,5.09
2023-01-11T03:11:32.307Z,5.12
2023-01-11T03:12:22.308Z,5.15
2023-01-11T03:13:12.309Z,5.17
2023-01-11T03:14:02.320Z,5.19
2023-01-11T03:14:52.266Z,5.22
2023-01-11T03:15:42.315Z,5.23
2023-01-11T03:16:32.254Z,5.26
2023-01-11T03:17:22.273Z,5.30
2023-01-11T03:18:12.232Z,5.33
2023-01-11T03:19:02.245Z,5.37
2023-01-11T03:19:52.215Z,5.38
2023-01-11T03:20:42.213Z,5.40
2023-01-11T03:21:32.203Z,5.42
2023-01-11T03:22:22.206Z,5.48
2023-01-11T03:23:12.205Z,5.48
2023-01-11T03:24:02.199Z,5.52
2023-01-11T03:24:52.154Z,5.58
2023-01-11T03:25:42.159Z,5.59
2023-01-11T03:26:32.143Z,5.63
2023-01-11T03:27:22.132Z,5.67
2023-01-11T03:28:12.127Z,5.74
2023-01-11T03:29:02.133Z,5.78
2023-01-11T03:29:52.103Z,5.81
2023-01-11T03:30:42.091Z,5.84
2023-01-11T03:31:32.186Z,5.87
2023-01-11T03:32:22.075Z,5.90
2023-01-11T03:33:12.077Z,5.93
2023-01-11T03:34:02.071Z,5.95
2023-01-11T03:34:59.030Z,5.95
2023-01-11T03:35:42.028Z,5.98
2023-01-11T03:36:32.018Z,5.98
2023-01-11T03:37:22.014Z,5.99
2023-01-11T03:38:12.010Z,6.01
2023-01-11T03:39:02.019Z,6.01
2023-01-11T03:39:52.003Z,6.01
2023-01-11T03:40:41.981Z,6.02
2023-01-11T03:41:31.971Z,6.02
2023-01-11T03:42:21.968Z,6.05
2023-01-11T03:43:11.951Z,6.06
2023-01-11T03:44:01.986Z,6.08
2023-01-11T03:44:51.931Z,6.10
2023-01-11T03:45:41.928Z,6.10
2023-01-11T03:46:31.950Z,6.14
2023-01-11T03:47:21.919Z,6.20
2023-01-11T03:48:11.900Z,6.21
2023-01-11T03:49:01.906Z,6.25
2023-01-11T03:49:51.866Z,6.28
2023-01-11T03:50:41.866Z,6.35
2023-01-11T03:51:31.861Z,6.42
2023-01-11T03:52:21.848Z,6.48
2023-01-11T03:53:11.857Z,6.51
2023-01-11T03:54:01.854Z,6.55
2023-01-11T03:54:51.819Z,6.60
2023-01-11T03:55:41.821Z,6.68
2023-01-11T03:56:31.795Z,6.73
2023-01-11T03:57:21.798Z,6.78
2023-01-11T03:58:11.788Z,6.81
2023-01-11T03:59:01.795Z,6.87
2023-01-11T03:59:51.765Z,6.89
2023-01-11T04:00:41.808Z,6.91
2023-01-11T04:01:31.744Z,6.93
2023-01-11T04:02:21.733Z,7.04
2023-01-11T04:03:11.724Z,7.09
2023-01-11T04:04:01.784Z,7.15
2023-01-11T04:04:51.727Z,7.21
2023-01-11T04:05:41.695Z,7.27
2023-01-11T04:06:31.703Z,7.32
2023-01-11T04:07:21.682Z,7.39
2023-01-11T04:08:11.704Z,7.44
2023-01-11T04:09:01.674Z,7.45
2023-01-11T04:09:51.643Z,7.47
2023-01-11T04:10:41.644Z,7.52
2023-01-11T04:11:31.633Z,7.54
2023-01-11T04:12:21.626Z,7.54
2023-01-11T04:13:11.611Z,7.55
2023-01-11T04:14:01.648Z,7.57
2023-01-11T04:14:51.605Z,7.57
2023-01-11T04:15:41.588Z,7.60
2023-01-11T04:16:31.623Z,7.62
2023-01-11T04:17:21.570Z,7.58
2023-01-11T04:18:11.567Z,7.58
2023-01-11T04:19:01.601Z,7.58
2023-01-11T04:19:51.543Z,7.60
2023-01-11T04:20:41.535Z,7.58
2023-01-11T04:21:31.528Z,7.62
2023-01-11T04:22:21.520Z,7.66
2023-01-11T04:23:11.504Z,7.67
2023-01-11T04:24:01.511Z,7.69
2023-01-11T04:24:51.523Z,7.69
2023-01-11T04:25:41.470Z,7.69
2023-01-11T04:26:31.468Z,7.69
2023-01-11T04:27:21.455Z,7.69
2023-01-11T04:28:11.450Z,7.70
2023-01-11T04:29:01.464Z,7.71
2023-01-11T04:29:51.432Z,7.74
2023-01-11T04:30:41.422Z,7.74
2023-01-11T04:31:31.412Z,7.76
2023-01-11T04:32:21.419Z,7.79
2023-01-11T04:33:11.386Z,7.81
2023-01-11T04:34:01.389Z,7.79
2023-01-11T04:34:51.370Z,7.81
2023-01-11T04:35:41.377Z,7.86
2023-01-11T04:36:31.422Z,7.88
2023-01-11T04:37:21.355Z,7.88
2023-01-11T04:38:11.333Z,7.91
2023-01-11T04:39:01.340Z,7.91
2023-01-11T04:39:51.340Z,7.92
2023-01-11T04:40:41.306Z,7.92
2023-01-11T04:41:31.322Z,7.92
2023-01-11T04:42:21.389Z,7.92
2023-01-11T04:43:11.282Z,7.91
2023-01-11T04:44:01.283Z,7.91
2023-01-11T04:44:51.251Z,7.94
2023-01-11T04:45:41.267Z,7.99
2023-01-11T04:46:31.238Z,8.00
2023-01-11T04:47:21.226Z,8.00
2023-01-11T04:48:11.222Z,8.06
2023-01-11T04:49:01.224Z,8.06
2023-01-11T04:49:51.207Z,8.07
2023-01-11T04:50:41.271Z,8.07
2023-01-11T04:51:31.188Z,8.10
2023-01-11T04:52:21.173Z,8.10
2023-01-11T04:53:11.187Z,8.13
2023-01-11T04:54:01.170Z,8.12
2023-01-11T04:54:51.139Z,8.13
2023-01-11T04:55:41.156Z,8.13
2023-01-11T04:56:31.129Z,8.14
2023-01-11T04:57:21.122Z,8.22
2023-01-11T04:58:11.104Z,8.25
2023-01-11T04:59:01.159Z,8.28
2023-01-11T04:59:51.119Z,8.29
2023-01-11T05:00:41.130Z,8.32
2023-01-11T05:01:31.146Z,8.32
2023-01-11T05:02:21.055Z,8.37
2023-01-11T05:03:11.064Z,8.36
2023-01-11T05:04:01.148Z,8.39
2023-01-11T05:04:51.031Z,8.39
2023-01-11T05:05:41.025Z,8.40
2023-01-11T05:06:31.045Z,8.43
2023-01-11T05:07:21.005Z,8.42
2023-01-11T05:08:11.025Z,8.45
2023-01-11T05:09:01.016Z,8.45
2023-01-11T05:09:50.997Z,8.46
2023-01-11T05:10:40.967Z,8.47
2023-01-11T05:11:30.954Z,8.50
2023-01-11T05:12:20.944Z,8.50
2023-01-11T05:13:10.934Z,8.52
2023-01-11T05:14:00.961Z,8.54
2023-01-11T05:14:50.920Z,8.55
2023-01-11T05:15:40.925Z,8.57
2023-01-11T05:16:30.995Z,8.55
2023-01-11T05:17:20.910Z,8.54
2023-01-11T05:18:10.881Z,8.57
2023-01-11T05:19:00.893Z,8.57
2023-01-11T05:19:50.865Z,8.55
2023-01-11T05:20:40.854Z,8.58
2023-01-11T05:21:30.844Z,8.58
2023-01-11T05:22:20.833Z,8.54
2023-01-11T05:23:10.833Z,8.55
2023-01-11T05:24:00.837Z,8.55
2023-01-11T05:24:50.818Z,8.58
2023-01-11T05:25:40.799Z,8.60
2023-01-11T05:26:31.242Z,8.61
2023-01-11T05:27:20.783Z,8.61
2023-01-11T05:28:10.773Z,8.63
2023-01-11T05:29:00.781Z,8.67
2023-01-11T05:29:50.759Z,8.68
2023-01-11T05:30:40.749Z,8.73
2023-01-11T05:31:30.764Z,8.73
2023-01-11T05:32:20.730Z,8.76
2023-01-11T05:33:10.731Z,8.78
2023-01-11T05:34:00.729Z,8.78
2023-01-11T05:34:50.691Z,8.82
2023-01-11T05:35:40.702Z,8.83
2023-01-11T05:36:30.687Z,8.80
2023-01-11T05:37:20.679Z,8.83
2023-01-11T05:38:10.651Z,8.79
2023-01-11T05:39:00.670Z,8.79
2023-01-11T05:39:50.640Z,8.78
2023-01-11T05:40:40.638Z,8.79
2023-01-11T05:41:30.619Z,8.78
2023-01-11T05:42:21.990Z,8.78
2023-01-11T05:43:10.602Z,8.78
2023-01-11T05:44:00.612Z,8.85
2023-01-11T05:44:50.591Z,8.93
2023-01-11T05:45:40.613Z,8.93
2023-01-11T05:46:30.562Z,8.93
2023-01-11T05:47:20.567Z,8.91
2023-01-11T05:48:10.538Z,8.93
2023-01-11T05:49:00.574Z,8.88
2023-01-11T05:49:50.524Z,8.83
2023-01-11T05:50:40.521Z,8.85
2023-01-11T05:51:30.507Z,8.82
2023-01-11T05:52:20.489Z,8.80
2023-01-11T05:53:17.479Z,8.79
2023-01-11T05:54:07.497Z,8.82
2023-01-11T05:54:50.457Z,8.82
2023-01-11T05:55:40.464Z,8.80
2023-01-11T05:56:30.453Z,8.83
2023-01-11T05:57:20.440Z,8.80
2023-01-11T05:58:10.433Z,8.82
2023-01-11T05:59:00.439Z,8.80
2023-01-11T05:59:50.414Z,8.80
2023-01-11T06:00:40.414Z,8.79
2023-01-11T06:01:30.411Z,8.79
2023-01-11T06:02:20.526Z,8.80
2023-01-11T06:03:10.427Z,8.80
2023-01-11T06:04:00.393Z,8.82
2023-01-11T06:04:50.377Z,8.80
2023-01-11T06:05:40.358Z,8.83
2023-01-11T06:06:30.355Z,8.85
2023-01-11T06:07:20.331Z,8.86
2023-01-11T06:08:10.321Z,8.85
2023-01-11T06:09:00.339Z,8.85
2023-01-11T06:09:50.299Z,8.85
2023-01-11T06:10:40.307Z,8.85
2023-01-11T06:11:30.278Z,8.89
2023-01-11T06:12:20.280Z,8.91
2023-01-11T06:13:10.261Z,8.91
2023-01-11T06:14:00.286Z,8.91
2023-01-11T06:14:50.257Z,8.94
2023-01-11T06:15:40.241Z,8.94
2023-01-11T06:16:30.255Z,8.91
2023-01-11T06:17:20.219Z,8.91
2023-01-11T06:18:10.216Z,8.94
2023-01-11T06:19:00.209Z,8.94
2023-01-11T06:19:50.195Z,8.96
2023-01-11T06:20:40.178Z,8.91
2023-01-11T06:21:30.196Z,8.98
2023-01-11T06:22:20.165Z,9.00
2023-01-11T06:23:10.161Z,9.00
2023-01-11T06:24:00.173Z,9.03
2023-01-11T06:24:50.129Z,9.01
2023-01-11T06:25:40.118Z,9.03
2023-01-11T06:26:30.137Z,9.04
2023-01-11T06:27:20.097Z,9.04
2023-01-11T06:28:10.099Z,9.04
2023-01-11T06:29:00.119Z,9.01
2023-01-11T06:29:50.085Z,9.01
2023-01-11T06:30:40.100Z,9.03
2023-01-11T06:31:30.089Z,8.98
2023-01-11T06:32:20.077Z,8.98
2023-01-11T06:33:10.056Z,8.97
2023-01-11T06:34:00.037Z,8.98
2023-01-11T06:34:50.045Z,8.96
2023-01-11T06:35:40.024Z,8.97
2023-01-11T06:36:30.069Z,8.98
2023-01-11T06:37:19.991Z,8.98
2023-01-11T06:38:09.987Z,8.97
2023-01-11T06:39:00.004Z,9.00
2023-01-11T06:39:49.966Z,8.98
2023-01-11T06:40:39.968Z,8.98
2023-01-11T06:41:29.959Z,8.98
2023-01-11T06:42:19.939Z,9.00
2023-01-11T06:43:09.936Z,9.00
2023-01-11T06:43:59.926Z,8.98
2023-01-11T06:44:49.912Z,8.97
2023-01-11T06:45:39.905Z,8.98
2023-01-11T06:46:29.930Z,9.00
2023-01-11T06:47:19.884Z,9.03
2023-01-11T06:48:09.884Z,9.06
2023-01-11T06:48:59.874Z,9.08
2023-01-11T06:49:49.855Z,9.10
2023-01-11T06:50:39.847Z,9.12
2023-01-11T06:51:29.834Z,9.13
2023-01-11T06:52:19.821Z,9.13
2023-01-11T06:53:09.813Z,9.16
2023-01-11T06:53:59.815Z,9.17
2023-01-11T06:54:49.813Z,9.20
2023-01-11T06:55:39.783Z,9.22
2023-01-11T06:56:29.785Z,9.20
2023-01-11T06:57:19.767Z,9.19
2023-01-11T06:58:09.758Z,9.19
2023-01-11T06:58:59.766Z,9.19
2023-01-11T06:59:49.742Z,9.20
2023-01-11T07:00:39.732Z,9.22
2023-01-11T07:01:29.759Z,9.26
2023-01-11T07:02:19.715Z,9.26
2023-01-11T07:03:09.738Z,9.27
2023-01-11T07:03:59.704Z,9.27
2023-01-11T07:04:49.703Z,9.30
2023-01-11T07:05:39.697Z,9.27
2023-01-11T07:06:29.672Z,9.31
2023-01-11T07:07:19.652Z,9.34
2023-01-11T07:08:09.666Z,9.37
2023-01-11T07:08:59.652Z,9.40
2023-01-11T07:09:49.635Z,9.40
2023-01-11T07:10:39.624Z,9.40
2023-01-11T07:11:29.620Z,9.38
2023-01-11T07:12:19.602Z,9.37
2023-01-11T07:13:09.591Z,9.37
2023-01-11T07:13:59.592Z,9.32
2023-01-11T07:14:49.572Z,9.32
2023-01-11T07:15:39.600Z,9.35
2023-01-11T07:16:29.562Z,9.35
2023-01-11T07:17:19.543Z,9.37
2023-01-11T07:18:09.537Z,9.37
2023-01-11T07:18:59.531Z,9.38
2023-01-11T07:19:49.511Z,9.41
2023-01-11T07:20:39.510Z,9.41
2023-01-11T07:21:29.536Z,9.41
2023-01-11T07:22:19.490Z,9.42
2023-01-11T07:23:09.493Z,9.42
2023-01-11T07:23:59.492Z,9.41
2023-01-11T07:24:49.460Z,9.41
2023-01-11T07:25:39.460Z,9.40
2023-01-11T07:26:29.477Z,9.38
2023-01-11T07:27:19.427Z,9.37
2023-01-11T07:28:09.449Z,9.38
2023-01-11T07:28:59.427Z,9.38
2023-01-11T07:29:49.417Z,9.40
2023-01-11T07:30:56.648Z,9.42
2023-01-11T07:31:30.414Z,9.42
2023-01-11T07:32:19.383Z,9.45
2023-01-11T07:33:09.386Z,9.48
2023-01-11T07:33:59.370Z,9.50
2023-01-11T07:34:59.951Z,9.52
2023-01-11T07:35:39.330Z,9.53
2023-01-11T07:36:29.334Z,9.56
2023-01-11T07:37:28.225Z,9.58
2023-01-11T07:38:10.310Z,9.58
2023-01-11T07:38:59.311Z,9.59
2023-01-11T07:39:49.297Z,9.56
2023-01-11T07:40:39.290Z,9.58
2023-01-11T07:41:29.276Z,9.59
2023-01-11T07:42:19.270Z,9.59
2023-01-11T07:43:09.270Z,9.59
2023-01-11T07:43:59.258Z,9.58
2023-01-11T07:44:49.257Z,9.58
2023-01-11T07:45:45.705Z,9.58
2023-01-11T07:46:30.348Z,9.59
2023-01-11T07:47:19.207Z,9.60
2023-01-11T07:48:09.201Z,9.62
2023-01-11T07:48:59.200Z,9.63
2023-01-11T07:49:49.178Z,9.65
2023-01-11T07:50:39.169Z,9.68
2023-01-11T07:51:29.169Z,9.73
2023-01-11T07:52:19.161Z,9.75
2023-01-11T07:53:09.142Z,9.77
2023-01-11T07:53:59.147Z,9.77
2023-01-11T07:54:49.127Z,9.77
2023-01-11T07:55:39.152Z,9.77
2023-01-11T07:56:29.110Z,9.77
2023-01-11T07:57:19.089Z,9.78
2023-01-11T07:58:09.088Z,9.78
2023-01-11T07:58:59.095Z,9.78
2023-01-11T07:59:49.083Z,9.80
2023-01-11T08:00:39.084Z,9.81
2023-01-11T08:01:29.082Z,9.83
2023-01-11T08:02:19.121Z,9.85
2023-01-11T08:03:09.249Z,9.85
2023-01-11T08:03:59.037Z,9.88
2023-01-11T08:04:49.007Z,9.88
2023-01-11T08:05:39.003Z,9.86
2023-01-11T08:06:28.998Z,9.85
2023-01-11T08:07:18.996Z,9.78
2023-01-11T08:08:09.003Z,9.74
2023-01-11T08:08:58.987Z,9.71
2023-01-11T08:09:48.980Z,9.70
2023-01-11T08:10:45.939Z,9.67
2023-01-11T08:11:28.967Z,9.70
2023-01-11T08:12:18.919Z,9.68
2023-01-11T08:13:08.915Z,9.68
2023-01-11T08:13:58.923Z,9.68
2023-01-11T08:14:48.900Z,9.71
2023-01-11T08:15:38.937Z,9.68
2023-01-11T08:16:28.896Z,9.67
2023-01-11T08:17:18.881Z,9.65
2023-01-11T08:18:08.866Z,9.63
2023-01-11T08:18:58.866Z,9.65
2023-01-11T08:19:48.854Z,9.67
2023-01-11T08:20:38.836Z,9.67
2023-01-11T08:21:28.825Z,9.67
2023-01-11T08:22:18.817Z,9.68
2023-01-11T08:23:08.814Z,9.73
2023-01-11T08:23:58.822Z,9.73
2023-01-11T08:24:48.787Z,9.74
2023-01-11T08:25:38.780Z,9.77
2023-01-11T08:26:28.770Z,9.78
2023-01-11T08:27:18.758Z,9.80
2023-01-11T08:28:08.760Z,9.83
2023-01-11T08:28:58.757Z,9.80
2023-01-11T08:29:48.832Z,9.80
2023-01-11T08:30:38.750Z,9.80
2023-01-11T08:31:28.754Z,9.81
2023-01-11T08:32:18.708Z,9.85
2023-01-11T08:33:08.709Z,9.86
2023-01-11T08:33:58.697Z,9.91
2023-01-11T08:34:48.679Z,9.93
2023-01-11T08:35:38.662Z,9.95
2023-01-11T08:36:28.667Z,9.96
2023-01-11T08:37:18.646Z,9.96
2023-01-11T08:38:08.641Z,9.98
2023-01-11T08:38:58.644Z,9.99
2023-01-11T08:39:48.637Z,9.98
2023-01-11T08:40:38.628Z,9.99
2023-01-11T08:41:28.604Z,10.01
2023-01-11T08:42:18.588Z,10.01
2023-01-11T08:43:08.595Z,9.99
2023-01-11T08:43:58.585Z,10.01
2023-01-11T08:44:48.575Z,10.01
2023-01-11T08:45:38.561Z,10.01
2023-01-11T08:46:28.575Z,10.02
2023-01-11T08:47:18.537Z,10.02
2023-01-11T08:48:08.526Z,10.02
2023-01-11T08:48:58.537Z,10.04
2023-01-11T08:49:48.516Z,10.09
2023-01-11T08:50:38.507Z,10.11
2023-01-11T08:51:28.495Z,10.16
2023-01-11T08:52:18.477Z,10.17
2023-01-11T08:53:08.934Z,10.17
2023-01-11T08:53:58.473Z,10.16
2023-01-11T08:54:48.447Z,10.17
2023-01-11T08:55:38.460Z,10.18
2023-01-11T08:56:28.444Z,10.17
2023-01-11T08:57:18.428Z,10.17
2023-01-11T08:58:08.416Z,10.22
2023-01-11T08:58:58.442Z,10.25
2023-01-11T08:59:48.393Z,10.26
2023-01-11T09:00:38.387Z,10.29
2023-01-11T09:01:28.409Z,10.31
2023-01-11T09:02:18.362Z,10.31
2023-01-11T09:03:08.407Z,10.32
2023-01-11T09:03:58.363Z,10.34
2023-01-11T09:04:48.356Z,10.35
2023-01-11T09:05:38.327Z,10.36
2023-01-11T09:06:28.320Z,10.36
2023-01-11T09:07:18.314Z,10.38
2023-01-11T09:08:08.301Z,10.42
2023-01-11T09:08:58.309Z,10.46
2023-01-11T09:09:48.293Z,10.47
2023-01-11T09:10:38.288Z,10.47
2023-01-11T09:11:28.262Z,10.51
2023-01-11T09:12:18.255Z,10.49
2023-01-11T09:13:08.252Z,10.51
2023-01-11T09:13:58.250Z,10.51
2023-01-11T09:14:48.233Z,10.52
2023-01-11T09:15:38.212Z,10.54
2023-01-11T09:16:28.212Z,10.55
2023-01-11T09:17:18.226Z,10.54
2023-01-11T09:18:08.201Z,10.54
2023-01-11T09:18:58.198Z,10.55
2023-01-11T09:19:48.171Z,10.55
2023-01-11T09:20:38.173Z,10.60
2023-01-11T09:21:28.150Z,10.60
2023-01-11T09:22:18.151Z,10.62
2023-01-11T09:23:08.157Z,10.66
2023-01-11T09:23:58.144Z,10.70
2023-01-11T09:24:48.122Z,10.72
2023-01-11T09:25:38.115Z,10.73
2023-01-11T09:26:28.092Z,10.75
2023-01-11T09:27:18.153Z,10.75
2023-01-11T09:28:08.080Z,10.76
2023-01-11T09:28:58.116Z,10.76
2023-01-11T09:29:48.060Z,10.75
2023-01-11T09:30:38.059Z,10.78
2023-01-11T09:31:28.096Z,10.76
2023-01-11T09:32:18.032Z,10.80
2023-01-11T09:33:08.021Z,10.87
2023-01-11T09:33:58.033Z,10.88
2023-01-11T09:34:48.017Z,10.90
2023-01-11T09:35:37.989Z,10.88
2023-01-11T09:36:27.990Z,10.86
2023-01-11T09:37:17.980Z,10.86
2023-01-11T09:38:07.990Z,10.86
2023-01-11T09:38:57.969Z,10.87
2023-01-11T09:39:47.955Z,10.88
2023-01-11T09:40:37.931Z,10.88
2023-01-11T09:41:27.935Z,10.87
2023-01-11T09:42:17.918Z,10.83
2023-01-11T09:43:07.917Z,10.81
2023-01-11T09:43:57.911Z,10.80
2023-01-11T09:44:47.892Z,10.80
2023-01-11T09:45:37.884Z,10.78
2023-01-11T09:46:27.946Z,10.73
2023-01-11T09:47:17.858Z,10.69
2023-01-11T09:48:07.870Z,10.68
2023-01-11T09:48:57.856Z,10.66
2023-01-11T09:49:47.829Z,10.62
2023-01-11T09:50:37.836Z,10.58
2023-01-11T09:51:27.815Z,10.52
2023-01-11T09:52:17.810Z,10.51
2023-01-11T09:53:07.805Z,10.47
2023-01-11T09:53:58.233Z,10.43
2023-01-11T09:54:47.878Z,10.39
2023-01-11T09:55:37.868Z,10.38
2023-01-11T09:56:27.789Z,10.34
2023-01-11T09:57:17.838Z,10.34
2023-01-11T09:58:07.826Z,10.34
2023-01-11T09:58:57.843Z,10.34
2023-01-11T09:59:47.762Z,10.34
2023-01-11T10:00:37.815Z,10.26
2023-01-11T10:01:27.723Z,10.24
2023-01-11T10:02:17.700Z,10.22
2023-01-11T10:03:07.691Z,10.22
2023-01-11T10:03:57.698Z,10.24
2023-01-11T10:04:47.748Z,10.25
2023-01-11T10:05:37.671Z,10.26
2023-01-11T10:06:27.648Z,10.25
2023-01-11T10:07:17.644Z,10.22
2023-01-11T10:18:25.529Z,10.04
2023-01-11T10:18:28.854Z,10.04
2023-01-11T10:18:28.982Z,10.10
2023-01-11T10:18:29.557Z,10.09
2023-01-11T10:18:30.324Z,10.09
2023-01-11T10:19:25.752Z,10.06
2023-01-11T10:19:48.547Z,10.06
2023-01-11T10:20:37.541Z,10.04
2023-01-11T10:21:27.484Z,10.01
2023-01-11T10:22:17.472Z,9.98
2023-01-11T10:23:07.459Z,9.96
2023-01-11T10:23:57.460Z,9.93
2023-01-11T10:24:47.461Z,9.95
2023-01-11T10:25:37.436Z,9.96
2023-01-11T10:26:27.441Z,9.98
2023-01-11T10:27:17.457Z,9.98
2023-01-11T10:28:07.419Z,10.01
2023-01-11T10:29:04.386Z,9.98
2023-01-11T10:29:47.386Z,10.01
2023-01-11T10:30:37.366Z,10.01
2023-01-11T10:31:27.396Z,10.01
2023-01-11T10:32:17.366Z,10.01
2023-01-11T10:33:07.345Z,9.96
2023-01-11T10:33:57.353Z,9.98
2023-01-11T10:34:47.346Z,9.99
2023-01-11T10:35:37.329Z,9.99
2023-01-11T10:36:29.356Z,10.02
2023-01-11T10:37:17.311Z,10.04
2023-01-11T10:38:07.315Z,10.04
2023-01-11T10:38:57.294Z,10.06
2023-01-11T10:39:47.285Z,9.99
2023-01-11T10:40:37.265Z,9.98
2023-01-11T10:41:27.252Z,9.98
2023-01-11T10:42:17.254Z,9.96
2023-01-11T10:43:07.247Z,9.93
2023-01-11T10:43:57.229Z,9.93
2023-01-11T10:44:47.235Z,9.92
2023-01-11T10:45:37.263Z,9.95
2023-01-11T10:46:27.215Z,9.96
2023-01-11T10:47:17.210Z,9.99
2023-01-11T10:48:07.206Z,10.01
2023-01-11T10:48:57.225Z,10.01
2023-01-11T10:49:47.406Z,10.01
2023-01-11T10:50:37.144Z,9.98
2023-01-11T10:51:27.152Z,9.98
2023-01-11T10:52:17.155Z,10.01
2023-01-11T10:53:07.140Z,10.04
2023-01-11T10:53:57.121Z,10.07
2023-01-11T10:54:47.777Z,10.10
2023-01-11T10:55:37.129Z,10.07
2023-01-11T10:56:27.106Z,10.07
2023-01-11T10:57:17.094Z,10.06
2023-01-11T10:58:07.113Z,10.04
2023-01-11T10:58:57.069Z,10.01
2023-01-11T10:59:47.095Z,10.02
2023-01-11T11:00:37.088Z,10.01
2023-01-11T11:01:27.031Z,9.99
2023-01-11T11:02:17.087Z,9.99
2023-01-11T11:03:07.022Z,9.98
2023-01-11T11:03:57.006Z,9.95
2023-01-11T11:04:47.017Z,9.95
2023-01-11T11:05:36.983Z,9.96
2023-01-11T11:06:27.015Z,9.98
2023-01-11T11:07:16.971Z,9.96
2023-01-11T11:08:06.952Z,9.96